createdAt,value
2017-06-20T00:00:10.767Z,19.30
2017-06-20T00:02:38.342Z,19.30
2017-06-20T00:05:05.900Z,19.30
2017-06-20T00:07:34.515Z,19.30
2017-06-20T00:10:02.081Z,19.30
2017-06-20T00:12:29.656Z,19.30
2017-06-20T00:14:57.241Z,19.30
2017-06-20T00:17:24.808Z,19.30
2017-06-20T00:19:52.755Z,19.20
2017-06-20T00:22:20.341Z,19.30
2017-06-20T00:24:47.914Z,19.30
2017-06-20T00:27:15.487Z,19.20
2017-06-20T00:29:43.069Z,19.20
2017-06-20T00:32:10.922Z,19.20
2017-06-20T00:34:38.547Z,19.30
2017-06-20T00:37:06.885Z,19.30
2017-06-20T00:39:34.507Z,19.30
2017-06-20T00:42:02.087Z,19.30
2017-06-20T00:44:29.961Z,19.20
2017-06-20T00:46:57.542Z,19.20
2017-06-20T00:49:25.103Z,19.20
2017-06-20T00:51:52.688Z,19.20
2017-06-20T00:54:20.255Z,19.20
2017-06-20T00:56:48.112Z,19.20
2017-06-20T00:59:15.672Z,19.20
2017-06-20T01:01:44.002Z,19.10
2017-06-20T01:04:11.570Z,19.10
2017-06-20T01:06:39.125Z,19.10
2017-06-20T01:09:06.984Z,19.10
2017-06-20T01:11:34.562Z,19.10
2017-06-20T01:14:02.126Z,19.10
2017-06-20T01:16:29.717Z,19.10
2017-06-20T01:18:58.056Z,19.00
2017-06-20T01:21:26.023Z,19.00
2017-06-20T01:23:53.596Z,19.00
2017-06-20T01:26:21.412Z,19.00
2017-06-20T01:28:49.023Z,19.00
2017-06-20T01:31:16.593Z,18.90
2017-06-20T01:33:45.239Z,18.90
2017-06-20T01:36:12.812Z,18.90
2017-06-20T01:38:40.386Z,18.90
2017-06-20T01:41:08.754Z,18.90
2017-06-20T01:43:36.310Z,18.90
2017-06-20T01:46:04.167Z,18.90
2017-06-20T01:48:31.739Z,18.90
2017-06-20T01:50:59.294Z,19.00
2017-06-20T01:53:26.868Z,18.90
2017-06-20T01:55:55.203Z,18.90
2017-06-20T01:58:23.083Z,18.90
2017-06-20T02:00:50.653Z,18.90
2017-06-20T02:03:18.213Z,18.90
2017-06-20T02:05:45.792Z,19.00
2017-06-20T02:08:14.135Z,19.00
2017-06-20T02:10:41.933Z,19.00
2017-06-20T02:13:10.264Z,19.00
2017-06-20T02:15:37.823Z,19.00
2017-06-20T02:18:05.391Z,19.00
2017-06-20T02:20:32.958Z,19.10
2017-06-20T02:23:00.817Z,19.10
2017-06-20T02:25:28.391Z,19.10
2017-06-20T02:27:55.964Z,19.10
2017-06-20T02:30:24.307Z,19.10
2017-06-20T02:32:51.883Z,19.00
2017-06-20T02:35:19.836Z,19.10
2017-06-20T02:37:47.397Z,19.10
2017-06-20T02:40:14.956Z,19.10
2017-06-20T02:42:42.541Z,19.10
2017-06-20T02:45:10.107Z,19.10
2017-06-20T02:47:37.948Z,19.10
2017-06-20T02:50:05.516Z,19.10
2017-06-20T02:52:33.075Z,19.20
2017-06-20T02:55:00.911Z,19.10
2017-06-20T02:57:28.485Z,19.10
2017-06-20T02:59:56.057Z,19.10
2017-06-20T03:02:23.627Z,19.10
2017-06-20T03:04:51.189Z,19.10
2017-06-20T03:07:19.533Z,19.20
2017-06-20T03:09:47.102Z,19.20
2017-06-20T03:12:14.666Z,19.20
2017-06-20T03:14:42.516Z,19.20
2017-06-20T03:17:10.088Z,19.30
2017-06-20T03:19:37.659Z,19.30
2017-06-20T03:22:05.220Z,19.40
2017-06-20T03:24:33.546Z,19.40
2017-06-20T03:27:01.427Z,19.40
2017-06-20T03:29:28.992Z,19.50
2017-06-20T03:31:56.555Z,19.50
2017-06-20T03:34:24.129Z,19.50
2017-06-20T03:36:51.694Z,19.50
2017-06-20T03:39:19.627Z,19.60
2017-06-20T03:41:47.210Z,19.60
2017-06-20T03:44:14.781Z,19.60
2017-06-20T03:46:42.361Z,19.60
2017-06-20T03:49:09.936Z,19.60
2017-06-20T03:51:37.837Z,19.70
2017-06-20T03:54:05.408Z,19.70
2017-06-20T03:56:32.967Z,19.70
2017-06-20T03:59:00.540Z,19.80
2017-06-20T04:01:28.106Z,19.80
2017-06-20T04:03:56.764Z,19.90
2017-06-20T04:06:24.346Z,19.90
2017-06-20T04:08:52.680Z,20.00
2017-06-20T04:11:20.259Z,20.00
2017-06-20T04:13:47.822Z,20.00
2017-06-20T04:16:15.681Z,20.10
2017-06-20T04:18:43.249Z,20.20
2017-06-20T04:21:16.731Z,20.20
2017-06-20T04:23:44.307Z,20.30
2017-06-20T04:26:11.866Z,20.40
2017-06-20T04:28:39.433Z,20.40
2017-06-20T04:31:07.771Z,20.60
2017-06-20T04:33:35.656Z,20.60
2017-06-20T04:36:03.219Z,20.70
2017-06-20T04:38:30.790Z,20.70
2017-06-20T04:40:58.374Z,20.70
2017-06-20T04:43:25.945Z,20.90
2017-06-20T04:45:53.786Z,20.90
2017-06-20T04:48:22.107Z,21.10
2017-06-20T04:50:49.662Z,21.00
2017-06-20T04:53:17.234Z,21.10
2017-06-20T04:55:44.808Z,21.20
2017-06-20T04:58:12.663Z,21.30
2017-06-20T05:00:40.224Z,21.30
2017-06-20T05:03:07.821Z,21.40
2017-06-20T05:05:35.408Z,21.50
2017-06-20T05:08:02.972Z,21.60
2017-06-20T05:10:30.869Z,21.70
2017-06-20T05:12:58.471Z,21.70
2017-06-20T05:15:26.847Z,21.90
2017-06-20T05:17:55.200Z,22.10
2017-06-20T05:20:22.765Z,22.00
2017-06-20T05:22:50.621Z,22.10
2017-06-20T05:25:18.198Z,22.20
2017-06-20T05:27:46.547Z,22.40
2017-06-20T05:30:14.175Z,22.40
2017-06-20T05:32:41.741Z,22.50
2017-06-20T05:35:09.617Z,22.70
2017-06-20T05:37:37.192Z,22.80
2017-06-20T05:40:04.754Z,22.90
2017-06-20T05:42:32.330Z,23.00
2017-06-20T05:44:59.891Z,23.10
2017-06-20T05:47:27.735Z,23.20
2017-06-20T05:49:55.322Z,23.30
2017-06-20T05:52:23.666Z,23.40
2017-06-20T05:54:51.238Z,23.30
2017-06-20T05:57:18.825Z,23.50
2017-06-20T05:59:47.459Z,23.60
2017-06-20T06:02:15.020Z,23.60
2017-06-20T06:04:42.584Z,23.70
2017-06-20T06:07:10.159Z,23.80
2017-06-20T06:09:37.736Z,23.80
2017-06-20T06:12:05.568Z,23.90
2017-06-20T06:14:33.148Z,24.00
2017-06-20T06:17:00.713Z,24.00
2017-06-20T06:19:29.064Z,24.20
2017-06-20T06:21:56.649Z,24.20
2017-06-20T06:24:25.301Z,24.30
2017-06-20T06:26:52.869Z,24.30
2017-06-20T06:29:20.440Z,24.30
2017-06-20T06:31:48.005Z,24.50
2017-06-20T06:34:15.556Z,24.50
2017-06-20T06:36:43.527Z,24.50
2017-06-20T06:39:11.078Z,24.70
2017-06-20T06:41:38.657Z,24.70
2017-06-20T06:44:07.045Z,24.80
2017-06-20T06:46:35.395Z,24.90
2017-06-20T06:49:03.259Z,24.80
2017-06-20T06:51:30.844Z,25.00
2017-06-20T06:53:58.426Z,25.10
2017-06-20T06:56:26.060Z,25.10
2017-06-20T06:58:54.384Z,25.30
2017-06-20T07:01:22.266Z,25.30
2017-06-20T07:03:49.840Z,25.40
2017-06-20T07:06:17.399Z,25.50
2017-06-20T07:08:44.994Z,25.50
2017-06-20T07:11:12.551Z,25.60
2017-06-20T07:13:40.345Z,25.70
2017-06-20T07:16:07.935Z,25.80
2017-06-20T07:18:35.511Z,25.80
2017-06-20T07:21:04.120Z,26.10
2017-06-20T07:23:31.696Z,26.00
2017-06-20T07:25:59.266Z,26.10
2017-06-20T07:28:26.874Z,26.20
2017-06-20T07:30:55.192Z,26.40
2017-06-20T07:33:22.760Z,26.40
2017-06-20T07:35:50.325Z,26.40
2017-06-20T07:38:17.896Z,26.50
2017-06-20T07:40:45.692Z,26.50
2017-06-20T07:43:14.028Z,26.70
2017-06-20T07:45:41.617Z,26.60
2017-06-20T07:48:09.196Z,26.70
2017-06-20T07:50:37.536Z,26.80
2017-06-20T07:53:05.395Z,26.70
2017-06-20T07:55:32.962Z,26.80
2017-06-20T07:58:00.541Z,26.90
2017-06-20T08:00:28.165Z,26.90
2017-06-20T08:02:55.731Z,27.00
2017-06-20T08:05:23.542Z,27.00
2017-06-20T08:07:51.108Z,27.10
2017-06-20T08:10:18.670Z,27.10
2017-06-20T08:12:46.234Z,27.10
2017-06-20T08:15:13.914Z,27.20
2017-06-20T08:17:41.722Z,27.20
2017-06-20T08:20:09.296Z,27.10
2017-06-20T08:22:36.861Z,27.20
2017-06-20T08:25:04.464Z,27.20
2017-06-20T08:27:32.029Z,27.40
2017-06-20T08:29:59.904Z,27.40
2017-06-20T08:32:27.497Z,27.40
2017-06-20T08:34:55.068Z,27.40
2017-06-20T08:37:25.593Z,27.40
2017-06-20T08:39:53.175Z,27.50
2017-06-20T08:42:21.071Z,27.50
2017-06-20T08:44:48.648Z,27.60
2017-06-20T08:47:16.222Z,27.50
2017-06-20T08:49:44.572Z,27.70
2017-06-20T08:52:12.136Z,27.60
2017-06-20T08:54:39.984Z,27.70
2017-06-20T08:57:07.550Z,27.70
2017-06-20T08:59:35.117Z,27.80
2017-06-20T09:02:03.051Z,27.90
2017-06-20T09:04:30.612Z,28.00
2017-06-20T09:06:58.495Z,28.10
2017-06-20T09:09:26.071Z,28.10
2017-06-20T09:11:53.628Z,28.20
2017-06-20T09:14:21.212Z,28.20
2017-06-20T09:16:48.791Z,28.40
2017-06-20T09:19:16.617Z,28.40
2017-06-20T09:21:44.187Z,28.50
2017-06-20T09:24:12.515Z,28.60
2017-06-20T09:26:40.100Z,28.60
2017-06-20T09:29:07.677Z,28.80
2017-06-20T09:31:35.543Z,28.90
2017-06-20T09:34:03.119Z,29.00
2017-06-20T09:36:31.477Z,29.00
2017-06-20T09:38:59.051Z,29.00
2017-06-20T09:41:27.383Z,28.80
2017-06-20T09:43:55.244Z,28.80
2017-06-20T09:46:22.809Z,28.90
2017-06-20T09:48:50.386Z,28.90
2017-06-20T09:51:17.989Z,29.00
2017-06-20T09:53:45.558Z,29.30
2017-06-20T09:56:13.144Z,29.40
2017-06-20T09:58:40.722Z,29.50
2017-06-20T10:01:08.559Z,29.60
2017-06-20T10:03:36.118Z,29.70
2017-06-20T10:06:03.679Z,29.70
2017-06-20T10:08:31.280Z,29.80
2017-06-20T10:10:59.613Z,29.80
2017-06-20T10:13:27.461Z,29.80
2017-06-20T10:15:55.014Z,29.80
2017-06-20T10:18:22.571Z,29.90
2017-06-20T10:20:50.144Z,30.00
2017-06-20T10:23:17.695Z,30.10
2017-06-20T10:25:45.487Z,30.40
2017-06-20T10:28:13.061Z,30.60
2017-06-20T10:30:40.648Z,30.50
2017-06-20T10:33:08.999Z,30.10
2017-06-20T10:35:36.561Z,30.10
2017-06-20T10:38:04.493Z,29.90
2017-06-20T10:40:32.047Z,29.80
2017-06-20T10:42:59.610Z,29.90
2017-06-20T10:45:27.192Z,30.20
2017-06-20T10:47:54.747Z,30.60
2017-06-20T10:50:22.616Z,30.90
2017-06-20T10:52:50.179Z,31.00
2017-06-20T10:55:17.739Z,30.70
2017-06-20T10:57:45.309Z,30.40
2017-06-20T11:00:12.901Z,30.50
2017-06-20T11:02:40.819Z,30.40
2017-06-20T11:05:09.223Z,30.40
2017-06-20T11:07:36.834Z,30.60
2017-06-20T11:10:04.432Z,30.70
2017-06-20T11:12:32.043Z,30.60
2017-06-20T11:14:59.971Z,30.60
2017-06-20T11:17:28.315Z,30.80
2017-06-20T11:19:55.924Z,30.80
2017-06-20T11:22:23.502Z,31.00
2017-06-20T11:24:51.058Z,31.20
2017-06-20T11:27:18.884Z,31.40
2017-06-20T11:29:47.226Z,31.60
2017-06-20T11:32:14.790Z,31.60
2017-06-20T11:34:42.493Z,31.60
2017-06-20T11:37:10.832Z,31.60
2017-06-20T11:39:38.700Z,31.60
2017-06-20T11:42:06.257Z,31.50
2017-06-20T11:44:33.827Z,31.30
2017-06-20T11:47:01.387Z,31.30
2017-06-20T11:49:28.950Z,31.10
2017-06-20T11:51:56.798Z,31.00
2017-06-20T11:54:24.364Z,31.00
2017-06-20T11:56:51.942Z,30.80
2017-06-20T11:59:20.287Z,31.40
2017-06-20T12:01:47.846Z,31.40
2017-06-20T12:04:15.709Z,31.40
2017-06-20T12:06:43.276Z,31.20
2017-06-20T12:09:10.900Z,31.00
2017-06-20T12:11:38.515Z,31.20
2017-06-20T12:14:06.100Z,31.40
2017-06-20T12:16:33.673Z,31.40
2017-06-20T12:19:01.253Z,31.50
2017-06-20T12:21:28.832Z,31.80
2017-06-20T12:23:56.416Z,31.80
2017-06-20T12:26:24.764Z,31.40
2017-06-20T12:28:52.354Z,31.40
2017-06-20T12:31:20.712Z,31.00
2017-06-20T12:33:48.567Z,30.90
2017-06-20T12:36:16.155Z,30.80
2017-06-20T12:38:44.475Z,31.00
2017-06-20T12:41:12.049Z,31.00
2017-06-20T12:43:39.643Z,31.30
2017-06-20T12:46:07.494Z,31.50
2017-06-20T12:48:35.134Z,31.60
2017-06-20T12:51:02.733Z,31.80
2017-06-20T12:53:31.069Z,32.50
2017-06-20T12:55:58.636Z,32.50
2017-06-20T12:58:26.496Z,32.90
2017-06-20T13:00:54.059Z,32.70
2017-06-20T13:03:21.629Z,32.30
2017-06-20T13:05:49.220Z,32.00
2017-06-20T13:08:16.790Z,32.10
2017-06-20T13:10:44.365Z,32.40
2017-06-20T13:13:11.926Z,32.80
2017-06-20T13:15:39.526Z,32.70
2017-06-20T13:18:07.085Z,32.90
2017-06-20T13:20:34.646Z,33.50
2017-06-20T13:23:02.292Z,33.50
2017-06-20T13:25:29.865Z,33.30
2017-06-20T13:27:57.434Z,33.40
2017-06-20T13:30:24.982Z,33.60
2017-06-20T13:32:52.927Z,33.50
2017-06-20T13:35:20.497Z,33.20
2017-06-20T13:37:48.122Z,32.80
2017-06-20T13:40:15.696Z,32.30
2017-06-20T13:42:43.270Z,31.80
2017-06-20T13:45:10.861Z,31.50
2017-06-20T13:47:39.222Z,31.00
2017-06-20T13:50:07.090Z,31.00
2017-06-20T13:52:34.697Z,30.80
2017-06-20T13:55:02.278Z,30.60
2017-06-20T13:57:29.839Z,30.50
2017-06-20T13:59:57.415Z,30.30
2017-06-20T14:02:24.988Z,30.10
2017-06-20T14:04:52.539Z,29.90
2017-06-20T14:07:20.395Z,29.70
2017-06-20T14:09:47.988Z,29.60
2017-06-20T14:12:16.332Z,28.90
2017-06-20T14:14:43.919Z,28.90
2017-06-20T14:17:12.243Z,28.10
2017-06-20T14:19:39.835Z,28.10
2017-06-20T14:22:07.462Z,27.80
2017-06-20T14:24:35.288Z,27.50
2017-06-20T14:27:03.624Z,27.10
2017-06-20T14:29:31.181Z,27.10
2017-06-20T14:31:58.751Z,26.80
2017-06-20T14:34:26.340Z,26.70
2017-06-20T14:36:53.933Z,26.60
2017-06-20T14:39:21.508Z,26.50
2017-06-20T14:41:49.390Z,26.40
2017-06-20T14:44:16.982Z,26.40
2017-06-20T14:46:45.307Z,26.50
2017-06-20T14:49:12.892Z,26.50
2017-06-20T14:51:40.477Z,26.60
2017-06-20T14:54:09.100Z,27.10
2017-06-20T14:56:36.645Z,27.00
2017-06-20T14:59:04.204Z,27.40
2017-06-20T15:01:31.781Z,27.90
2017-06-20T15:03:59.368Z,28.30
2017-06-20T15:06:26.930Z,28.90
2017-06-20T15:08:54.488Z,30.30
2017-06-20T15:11:22.435Z,31.60
2017-06-20T15:13:49.998Z,33.20
2017-06-20T15:16:17.566Z,34.90
2017-06-20T15:18:45.163Z,36.50
2017-06-20T15:21:13.541Z,39.50
2017-06-20T15:23:41.129Z,39.50
2017-06-20T15:26:08.716Z,40.80
2017-06-20T15:28:36.678Z,41.50
2017-06-20T15:31:04.239Z,41.80
2017-06-20T15:33:31.813Z,42.50
2017-06-20T15:35:59.401Z,43.90
2017-06-20T15:38:26.984Z,44.80
2017-06-20T15:40:54.859Z,45.80
2017-06-20T15:43:22.453Z,46.30
2017-06-20T15:45:50.050Z,46.40
2017-06-20T15:48:17.663Z,46.70
2017-06-20T15:50:45.246Z,46.90
2017-06-20T15:53:13.592Z,45.10
2017-06-20T15:55:41.152Z,45.10
2017-06-20T15:58:08.961Z,44.50
2017-06-20T16:00:37.303Z,43.30
2017-06-20T16:03:04.866Z,43.30
2017-06-20T16:05:32.439Z,42.30
2017-06-20T16:08:00.007Z,41.10
2017-06-20T16:10:27.592Z,39.70
2017-06-20T16:12:55.153Z,38.20
2017-06-20T16:15:22.997Z,36.80
2017-06-20T16:17:51.337Z,34.50
2017-06-20T16:20:18.901Z,34.50
2017-06-20T16:22:46.479Z,33.50
2017-06-20T16:25:14.091Z,32.70
2017-06-20T16:27:41.748Z,32.10
2017-06-20T16:30:09.339Z,31.80
2017-06-20T16:32:37.208Z,31.60
2017-06-20T16:35:04.792Z,31.20
2017-06-20T16:37:32.420Z,31.10
2017-06-20T16:39:59.981Z,30.90
2017-06-20T16:42:27.565Z,30.80
2017-06-20T16:44:55.919Z,30.60
2017-06-20T16:47:23.509Z,30.60
2017-06-20T16:49:52.133Z,30.40
2017-06-20T16:52:20.214Z,30.40
2017-06-20T16:54:47.797Z,30.30
2017-06-20T16:57:15.437Z,30.20
2017-06-20T16:59:43.012Z,30.00
2017-06-20T17:02:10.621Z,30.00
2017-06-20T17:04:38.196Z,30.00
2017-06-20T17:07:06.011Z,29.90
2017-06-20T17:09:34.377Z,29.70
2017-06-20T17:12:01.987Z,29.70
2017-06-20T17:14:29.558Z,29.70
2017-06-20T17:16:57.145Z,29.80
2017-06-20T17:19:24.722Z,29.80
2017-06-20T17:21:52.319Z,29.80
2017-06-20T17:24:20.227Z,29.70
2017-06-20T17:26:47.810Z,29.60
2017-06-20T17:29:16.183Z,29.30
2017-06-20T17:31:43.759Z,29.30
2017-06-20T17:34:12.081Z,29.10
2017-06-20T17:36:39.669Z,29.00
2017-06-20T17:39:07.240Z,29.10
2017-06-20T17:41:35.928Z,29.10
2017-06-20T17:44:04.342Z,29.00
2017-06-20T17:46:31.937Z,29.00
2017-06-20T17:48:59.551Z,29.00
2017-06-20T17:51:27.114Z,28.90
2017-06-20T17:53:54.723Z,28.90
2017-06-20T17:56:22.304Z,28.90
2017-06-20T17:58:50.238Z,28.90
2017-06-20T18:01:17.928Z,29.00
2017-06-20T18:03:45.534Z,29.10
2017-06-20T18:06:13.118Z,28.90
2017-06-20T18:08:40.721Z,28.80
2017-06-20T18:11:09.282Z,28.60
2017-06-20T18:13:36.858Z,28.60
2017-06-20T18:16:05.510Z,28.50
2017-06-20T18:18:33.092Z,28.50
2017-06-20T18:21:01.445Z,28.50
2017-06-20T18:23:29.032Z,28.50
2017-06-20T18:25:57.387Z,28.60
2017-06-20T18:28:25.762Z,28.50
2017-06-20T18:30:53.334Z,28.50
2017-06-20T18:33:21.403Z,28.40
2017-06-20T18:35:48.963Z,28.30
2017-06-20T18:38:16.546Z,28.20
2017-06-20T18:40:44.138Z,28.10
2017-06-20T18:43:11.698Z,28.00
2017-06-20T18:45:39.306Z,28.00
2017-06-20T18:48:07.698Z,27.80
2017-06-20T18:50:36.314Z,27.80
2017-06-20T18:53:03.906Z,27.80
2017-06-20T18:55:31.550Z,27.70
2017-06-20T18:57:59.152Z,27.60
2017-06-20T19:00:27.499Z,27.40
2017-06-20T19:02:55.093Z,27.40
2017-06-20T19:05:23.427Z,27.20
2017-06-20T19:07:51.303Z,27.20
2017-06-20T19:10:18.895Z,27.10
2017-06-20T19:12:47.250Z,27.00
2017-06-20T19:15:14.872Z,27.00
2017-06-20T19:17:42.540Z,26.90
2017-06-20T19:20:10.471Z,26.80
2017-06-20T19:22:38.219Z,26.70
2017-06-20T19:25:06.847Z,26.50
2017-06-20T19:27:34.448Z,26.50
2017-06-20T19:30:02.028Z,26.40
2017-06-20T19:32:30.384Z,26.20
2017-06-20T19:34:57.988Z,26.20
2017-06-20T19:37:25.565Z,26.20
2017-06-20T19:39:53.130Z,26.10
2017-06-20T19:42:21.005Z,26.00
2017-06-20T19:44:48.633Z,25.90
2017-06-20T19:47:16.234Z,25.90
2017-06-20T19:49:43.866Z,25.80
2017-06-20T19:52:11.574Z,25.70
2017-06-20T19:54:39.505Z,25.60
2017-06-20T19:57:07.105Z,25.50
2017-06-20T19:59:35.479Z,25.30
2017-06-20T20:02:03.862Z,25.30
2017-06-20T20:04:32.209Z,25.20
2017-06-20T20:06:59.807Z,25.20
2017-06-20T20:09:28.160Z,25.10
2017-06-20T20:11:56.018Z,25.10
2017-06-20T20:14:23.644Z,25.10
2017-06-20T20:16:51.367Z,25.00
2017-06-20T20:19:18.975Z,25.00
2017-06-20T20:21:46.536Z,25.00
2017-06-20T20:24:14.153Z,25.00
2017-06-20T20:26:42.508Z,24.90
2017-06-20T20:29:10.391Z,24.90
2017-06-20T20:31:38.009Z,24.90
2017-06-20T20:34:05.592Z,24.90
2017-06-20T20:36:33.200Z,24.80
2017-06-20T20:39:00.836Z,24.80
2017-06-20T20:41:28.435Z,24.80
2017-06-20T20:43:56.029Z,24.90
2017-06-20T20:46:23.967Z,24.90
2017-06-20T20:48:51.559Z,24.90
2017-06-20T20:51:19.317Z,24.90
2017-06-20T20:53:47.855Z,24.80
2017-06-20T20:56:15.609Z,24.80
2017-06-20T20:58:43.192Z,24.70
2017-06-20T21:01:10.762Z,24.70
2017-06-20T21:03:38.721Z,24.70
2017-06-20T21:06:06.409Z,24.70
2017-06-20T21:08:33.996Z,24.60
2017-06-20T21:11:01.612Z,24.60
2017-06-20T21:13:29.183Z,24.50
2017-06-20T21:15:56.794Z,24.50
2017-06-20T21:18:24.392Z,24.40
2017-06-20T21:20:52.253Z,24.40
2017-06-20T21:23:19.835Z,24.40
2017-06-20T21:25:47.418Z,24.40
2017-06-20T21:28:15.253Z,24.40
2017-06-20T21:30:43.603Z,24.40
2017-06-20T21:33:11.219Z,24.40
2017-06-20T21:35:39.622Z,24.30
2017-06-20T21:38:07.554Z,24.30
2017-06-20T21:40:35.877Z,24.20
2017-06-20T21:43:03.448Z,24.10
2017-06-20T21:45:31.042Z,24.10
2017-06-20T21:47:59.392Z,23.90
2017-06-20T21:50:26.999Z,23.90
2017-06-20T21:52:54.581Z,23.80
2017-06-20T21:55:22.423Z,23.70
2017-06-20T21:57:50.010Z,23.60
2017-06-20T22:00:17.585Z,23.60
2017-06-20T22:02:45.159Z,23.40
2017-06-20T22:05:12.734Z,23.30
2017-06-20T22:07:40.365Z,23.20
2017-06-20T22:10:08.155Z,23.10
2017-06-20T22:12:36.107Z,23.10
2017-06-20T22:15:03.696Z,23.10
2017-06-20T22:17:32.037Z,23.00
2017-06-20T22:19:59.631Z,23.00
2017-06-20T22:22:27.968Z,22.90
2017-06-20T22:24:55.563Z,22.90
2017-06-20T22:27:23.916Z,22.90
2017-06-20T22:29:51.870Z,22.80
2017-06-20T22:32:19.449Z,22.80
2017-06-20T22:34:47.056Z,22.80
2017-06-20T22:37:14.648Z,22.70
2017-06-20T22:39:42.212Z,22.60
2017-06-20T22:42:09.816Z,22.60
2017-06-20T22:44:38.151Z,22.50
2017-06-20T22:47:06.019Z,22.50
2017-06-20T22:49:33.600Z,22.50
2017-06-20T22:52:01.170Z,22.50
2017-06-20T22:54:29.531Z,22.50
2017-06-20T22:56:57.166Z,22.50
2017-06-20T22:59:25.026Z,22.50
2017-06-20T23:01:52.617Z,22.40
2017-06-20T23:04:20.226Z,22.40
2017-06-20T23:06:47.814Z,22.30
2017-06-20T23:09:15.404Z,22.30
2017-06-20T23:11:44.069Z,22.20
2017-06-20T23:14:11.693Z,22.20
2017-06-20T23:16:39.305Z,22.20
2017-06-20T23:19:07.651Z,22.10
2017-06-20T23:21:35.271Z,22.00
2017-06-20T23:24:03.189Z,22.00
2017-06-20T23:26:30.763Z,22.00
2017-06-20T23:28:59.127Z,21.90
2017-06-20T23:31:26.716Z,21.90
2017-06-20T23:33:54.289Z,21.90
2017-06-20T23:36:21.868Z,21.90
2017-06-20T23:38:49.437Z,21.80
2017-06-20T23:41:17.445Z,21.80
2017-06-20T23:43:45.018Z,21.70
2017-06-20T23:46:13.373Z,21.70
2017-06-20T23:48:40.959Z,21.60
2017-06-20T23:51:08.551Z,21.70
2017-06-20T23:53:36.458Z,21.60
2017-06-20T23:56:04.028Z,21.60
2017-06-20T23:58:31.611Z,21.60
